Blackville, Arkansas
Current Conditions -  °F | °C
As of 8:56 PM on Thursday 18 Dec 2014 (Local Time) from KM19 Reporting Station
Light Rain Light Rain  
Wind Chill: 38°   Ceiling: 3600
Heat Index: 41°   Visibility: 4mi
Dew Point: 39°   Wind: 5mph
Humidity: 92%   Direction: 50°NE
Pressure: 30.26"   Gusts: NA
Location:  35.5678°N, 91.2073°W
Report Text: KM19 190256Z AUTO 05004KT 4SM -RA BR OVC036 05/04 A3026 RMK AO2 51010 60000 T00500038 RAB24 P0000 SLP247
Loading
Personal Weather Stations






























Interactive Weather Map New forecast layout! Learn more

10-Day Weather Forecast

Advertisements
Track Severe Weather on mobile